createdAt,value
2022-09-26T00:01:22.468Z,93472.09
2022-09-26T00:03:52.698Z,93469.88
2022-09-26T00:06:20.517Z,93468.88
2022-09-26T00:08:48.463Z,93463.06
2022-09-26T00:11:20.003Z,93460.44
2022-09-26T00:13:47.262Z,93462.06
2022-09-26T00:16:15.217Z,93459.69
2022-09-26T00:18:41.871Z,93451.59
2022-09-26T00:21:12.407Z,93457.41
2022-09-26T00:23:40.269Z,93454.25
2022-09-26T00:26:06.972Z,93457.41
2022-09-26T00:28:34.281Z,93456.22
2022-09-26T00:31:22.489Z,93447.38
2022-09-26T00:33:49.285Z,93449.56
2022-09-26T00:36:16.479Z,93440.13
2022-09-26T00:38:43.129Z,93438.88
2022-09-26T00:41:10.636Z,93438.50
2022-09-26T00:43:57.249Z,93437.97
2022-09-26T00:46:38.073Z,93432.13
2022-09-26T00:49:31.176Z,93432.38
2022-09-26T00:52:04.165Z,93429.94
2022-09-26T00:54:31.679Z,93428.13
2022-09-26T00:57:14.114Z,93422.91
2022-09-26T00:59:46.545Z,93420.59
2022-09-26T01:02:13.687Z,93411.28
2022-09-26T01:04:42.443Z,93418.91
2022-09-26T01:07:16.992Z,93415.47
2022-09-26T01:09:43.773Z,93402.91
2022-09-26T01:12:11.202Z,93405.50
2022-09-26T01:14:40.277Z,93407.47
2022-09-26T01:17:08.392Z,93403.69
2022-09-26T01:20:19.356Z,93401.53
2022-09-26T01:22:55.950Z,93393.56
2022-09-26T01:25:41.238Z,93399.75
2022-09-26T01:28:10.885Z,93394.94
2022-09-26T01:31:01.349Z,93392.84
2022-09-26T01:33:35.520Z,93390.41
2022-09-26T01:36:04.850Z,93401.00
2022-09-26T01:39:02.178Z,93397.84
2022-09-26T01:41:55.364Z,93386.81
2022-09-26T01:44:48.738Z,93389.69
2022-09-26T01:47:23.897Z,93390.97
2022-09-26T01:50:00.225Z,93386.38
2022-09-26T01:52:39.422Z,93390.72
2022-09-26T01:55:24.677Z,93379.78
2022-09-26T01:58:02.453Z,93388.03
2022-09-26T02:00:30.436Z,93386.75
2022-09-26T02:02:59.651Z,93379.03
2022-09-26T02:05:35.805Z,93375.06
2022-09-26T02:08:10.076Z,93374.66
2022-09-26T02:10:43.431Z,93376.44
2022-09-26T02:13:16.028Z,93373.97
2022-09-26T02:15:47.492Z,93372.00
2022-09-26T02:18:23.514Z,93368.44
2022-09-26T02:20:59.236Z,93370.25
2022-09-26T02:23:25.872Z,93372.50
2022-09-26T02:25:52.488Z,93368.78
2022-09-26T02:28:19.097Z,93373.69
2022-09-26T02:30:47.377Z,93359.59
2022-09-26T02:33:14.537Z,93363.72
2022-09-26T02:35:54.382Z,93356.91
2022-09-26T02:38:23.117Z,93358.72
2022-09-26T02:41:08.378Z,93361.00
2022-09-26T02:43:41.726Z,93354.88
2022-09-26T02:46:24.214Z,93357.88
2022-09-26T02:49:14.078Z,93353.94
2022-09-26T02:52:22.811Z,93356.28
2022-09-26T02:55:05.322Z,93351.44
2022-09-26T02:57:47.549Z,93339.72
2022-09-26T03:00:21.004Z,93346.66
2022-09-26T03:02:59.402Z,93342.53
2022-09-26T03:05:29.529Z,93343.50
2022-09-26T03:08:17.607Z,93333.25
2022-09-26T03:10:45.451Z,93339.78
2022-09-26T03:13:14.820Z,93339.00
2022-09-26T03:15:46.004Z,93342.94
2022-09-26T03:18:18.421Z,93340.53
2022-09-26T03:20:45.289Z,93345.22
2022-09-26T03:23:12.033Z,93336.00
2022-09-26T03:25:39.397Z,93325.97
2022-09-26T03:28:06.043Z,93335.28
2022-09-26T03:30:33.465Z,93338.31
2022-09-26T03:33:00.035Z,93337.03
2022-09-26T03:35:26.640Z,93342.72
2022-09-26T03:37:53.335Z,93334.06
2022-09-26T03:40:19.984Z,93328.13
2022-09-26T03:42:48.038Z,93324.41
2022-09-26T03:45:14.769Z,93322.09
2022-09-26T03:47:41.950Z,93321.31
2022-09-26T03:50:09.379Z,93312.00
2022-09-26T03:52:36.635Z,93311.06
2022-09-26T03:55:04.583Z,93308.44
2022-09-26T03:57:32.325Z,93300.47
2022-09-26T03:59:58.980Z,93300.50
2022-09-26T04:02:25.638Z,93297.22
2022-09-26T04:04:52.277Z,93296.28
2022-09-26T04:07:18.877Z,93289.94
2022-09-26T04:09:45.490Z,93285.25
2022-09-26T04:12:12.066Z,93282.69
2022-09-26T04:14:38.681Z,93284.38
2022-09-26T04:17:05.348Z,93280.53
2022-09-26T04:19:31.986Z,93278.59
2022-09-26T04:21:58.947Z,93282.84
2022-09-26T04:24:25.865Z,93274.19
2022-09-26T04:26:52.501Z,93275.81
2022-09-26T04:29:19.266Z,93267.44
2022-09-26T04:31:46.324Z,93271.47
2022-09-26T04:34:13.118Z,93260.63
2022-09-26T04:36:39.770Z,93259.63
2022-09-26T04:39:06.552Z,93259.56
2022-09-26T04:41:33.423Z,93260.03
2022-09-26T04:44:01.876Z,93253.50
2022-09-26T04:46:31.064Z,93259.03
2022-09-26T04:48:59.942Z,93265.38
2022-09-26T04:51:28.370Z,93260.94
2022-09-26T04:53:55.650Z,93258.69
2022-09-26T04:56:24.388Z,93261.38
2022-09-26T04:58:51.822Z,93262.00
2022-09-26T05:01:20.745Z,93258.06
2022-09-26T05:03:47.918Z,93256.06
2022-09-26T05:06:16.247Z,93256.97
2022-09-26T05:08:46.385Z,93253.47
2022-09-26T05:11:15.523Z,93253.22
2022-09-26T05:13:42.463Z,93251.53
2022-09-26T05:16:11.544Z,93253.34
2022-09-26T05:18:39.154Z,93247.75
2022-09-26T05:21:07.433Z,93251.94
2022-09-26T05:23:53.392Z,93251.59
2022-09-26T05:26:59.765Z,93252.28
2022-09-26T05:29:26.591Z,93251.47
2022-09-26T05:31:54.201Z,93250.22
2022-09-26T05:34:20.859Z,93253.44
2022-09-26T05:36:47.799Z,93262.22
2022-09-26T05:39:32.918Z,93261.03
2022-09-26T05:41:59.811Z,93272.88
2022-09-26T05:44:27.365Z,93293.31
2022-09-26T05:46:55.068Z,93284.88
2022-09-26T05:49:21.873Z,93279.88
2022-09-26T05:51:48.559Z,93279.75
2022-09-26T05:54:15.368Z,93276.91
2022-09-26T05:56:42.355Z,93275.41
2022-09-26T05:59:09.116Z,93270.84
2022-09-26T06:01:35.963Z,93265.69
2022-09-26T06:04:03.041Z,93277.91
2022-09-26T06:06:32.746Z,93277.41
2022-09-26T06:08:59.971Z,93272.97
2022-09-26T06:11:31.031Z,93265.84
2022-09-26T06:14:00.714Z,93259.44
2022-09-26T06:16:28.335Z,93254.69
2022-09-26T06:18:55.744Z,93251.72
2022-09-26T06:21:23.228Z,93244.47
2022-09-26T06:23:50.171Z,93230.84
2022-09-26T06:26:22.062Z,93226.91
2022-09-26T06:28:51.451Z,93221.66
2022-09-26T06:31:19.077Z,93221.06
2022-09-26T06:33:53.708Z,93216.88
2022-09-26T06:36:21.893Z,93216.91
2022-09-26T06:38:48.897Z,93224.81
2022-09-26T06:41:16.383Z,93214.50
2022-09-26T06:43:45.249Z,93212.09
2022-09-26T06:46:13.867Z,93213.25
2022-09-26T06:48:41.013Z,93217.94
2022-09-26T06:51:08.824Z,93218.88
2022-09-26T06:53:35.433Z,93209.13
2022-09-26T06:56:02.279Z,93204.28
2022-09-26T06:58:29.479Z,93199.78
2022-09-26T07:00:56.637Z,93203.44
2022-09-26T07:03:25.235Z,93203.63
2022-09-26T07:05:54.461Z,93190.81
2022-09-26T07:08:32.365Z,93192.06
2022-09-26T07:11:31.281Z,93194.44
2022-09-26T07:13:54.262Z,93198.84
2022-09-26T07:16:21.599Z,93202.94
2022-09-26T07:18:48.237Z,93196.16
2022-09-26T07:21:14.862Z,93190.63
2022-09-26T07:23:41.431Z,93188.63
2022-09-26T07:26:08.052Z,93183.63
2022-09-26T07:28:34.822Z,93188.69
2022-09-26T07:31:01.638Z,93194.25
2022-09-26T07:33:28.293Z,93196.16
2022-09-26T07:35:55.639Z,93194.31
2022-09-26T07:38:22.346Z,93185.41
2022-09-26T07:40:54.395Z,93200.88
2022-09-26T07:43:35.602Z,93188.06
2022-09-26T07:46:26.853Z,93193.50
2022-09-26T07:49:12.535Z,93182.00
2022-09-26T07:51:39.135Z,93193.47
2022-09-26T07:54:06.424Z,93184.09
2022-09-26T07:56:34.415Z,93192.97
2022-09-26T07:59:05.195Z,93176.28
2022-09-26T08:01:32.064Z,93184.94
2022-09-26T08:03:58.945Z,93175.44
2022-09-26T08:06:25.857Z,93171.81
2022-09-26T08:08:53.982Z,93168.09
2022-09-26T08:11:20.836Z,93171.22
2022-09-26T08:13:48.613Z,93160.25
2022-09-26T08:16:23.092Z,93155.97
2022-09-26T08:18:51.372Z,93164.41
2022-09-26T08:21:18.898Z,93167.84
2022-09-26T08:23:46.894Z,93166.16
2022-09-26T08:26:14.045Z,93161.34
2022-09-26T08:28:40.992Z,93172.00
2022-09-26T08:31:08.236Z,93169.19
2022-09-26T08:33:37.171Z,93180.47
2022-09-26T08:36:09.275Z,93174.91
2022-09-26T08:38:37.775Z,93167.84
2022-09-26T08:41:24.427Z,93170.34
2022-09-26T08:44:06.150Z,93175.91
2022-09-26T08:46:56.876Z,93174.44
2022-09-26T08:49:36.914Z,93176.84
2022-09-26T08:52:12.150Z,93173.03
2022-09-26T08:54:43.309Z,93170.09
2022-09-26T08:57:26.681Z,93168.13
2022-09-26T08:59:54.462Z,93170.97
2022-09-26T09:02:44.490Z,93172.91
2022-09-26T09:05:23.332Z,93169.63
2022-09-26T09:07:53.312Z,93164.91
2022-09-26T09:10:45.355Z,93166.47
2022-09-26T09:13:33.835Z,93155.41
2022-09-26T09:16:13.469Z,93159.69
2022-09-26T09:19:08.524Z,93167.13
2022-09-26T09:21:42.146Z,93163.97
2022-09-26T09:24:36.204Z,93164.44
2022-09-26T09:30:51.594Z,93150.41
2022-09-26T09:33:26.123Z,93150.56
2022-09-26T09:35:57.908Z,93141.28
2022-09-26T09:38:30.313Z,93139.22
2022-09-26T09:40:59.882Z,93133.88
2022-09-26T09:43:43.792Z,93130.09
2022-09-26T09:46:29.187Z,93129.75
2022-09-26T09:49:20.758Z,93117.94
2022-09-26T09:52:29.139Z,93120.09
2022-09-26T09:55:37.648Z,93114.63
2022-09-26T09:58:17.222Z,93111.47
2022-09-26T10:00:54.408Z,93110.97
2022-09-26T10:03:53.163Z,93105.09
2022-09-26T10:06:45.343Z,93100.16
2022-09-26T10:09:38.804Z,93087.56
2022-09-26T10:12:20.976Z,93096.69
2022-09-26T10:14:51.820Z,93091.16
2022-09-26T10:17:20.598Z,93093.88
2022-09-26T10:19:47.647Z,93091.59
2022-09-26T10:22:17.161Z,93089.84
2022-09-26T10:24:47.195Z,93084.09
2022-09-26T10:27:18.324Z,93076.66
2022-09-26T10:29:45.675Z,93077.56
2022-09-26T10:32:12.714Z,93078.97
2022-09-26T10:34:40.222Z,93072.09
2022-09-26T10:37:24.233Z,93069.69
2022-09-26T10:40:14.742Z,93060.81
2022-09-26T10:42:43.162Z,93074.91
2022-09-26T10:45:15.980Z,93068.34
2022-09-26T10:47:47.080Z,93061.19
2022-09-26T10:50:18.157Z,93061.19
2022-09-26T10:52:56.273Z,93064.03
2022-09-26T10:55:32.430Z,93062.13
2022-09-26T10:58:08.866Z,93065.66
2022-09-26T11:00:42.199Z,93059.53
2022-09-26T11:03:22.078Z,93052.34
2022-09-26T11:05:57.669Z,93051.47
2022-09-26T11:08:30.326Z,93053.44
2022-09-26T11:11:04.173Z,93046.78
2022-09-26T11:13:39.985Z,93045.81
2022-09-26T11:16:13.414Z,93044.56
2022-09-26T11:18:46.574Z,93030.75
2022-09-26T11:21:42.048Z,93031.19
2022-09-26T11:24:42.810Z,93034.31
2022-09-26T11:27:22.355Z,93025.59
2022-09-26T11:30:12.550Z,93015.97
2022-09-26T11:32:42.996Z,93015.22
2022-09-26T11:35:33.310Z,93017.66
2022-09-26T11:38:26.716Z,93012.22
2022-09-26T11:41:39.413Z,93007.75
2022-09-26T11:44:20.959Z,93006.09
2022-09-26T11:47:15.198Z,93000.75
2022-09-26T11:50:08.011Z,92993.06
2022-09-26T11:53:04.586Z,92984.91
2022-09-26T11:55:51.251Z,92980.81
2022-09-26T11:58:44.564Z,92976.16
2022-09-26T12:01:30.518Z,92978.28
2022-09-26T12:04:03.037Z,92991.16
2022-09-26T12:06:41.670Z,92981.19
2022-09-26T12:09:36.300Z,92987.38
2022-09-26T12:12:20.835Z,92978.88
2022-09-26T12:15:15.055Z,92977.50
2022-09-26T12:17:59.458Z,92972.38
2022-09-26T12:21:09.259Z,92969.03
2022-09-26T12:23:35.837Z,92978.47
2022-09-26T12:26:58.290Z,92976.41
2022-09-26T12:29:53.770Z,92972.34
2022-09-26T12:32:29.681Z,92961.97
2022-09-26T12:35:32.838Z,92965.19
2022-09-26T12:38:17.532Z,92955.09
2022-09-26T12:40:56.229Z,92954.09
2022-09-26T12:43:34.783Z,92947.47
2022-09-26T12:46:09.907Z,92942.47
2022-09-26T12:49:07.623Z,92944.25
2022-09-26T12:51:48.482Z,92943.63
2022-09-26T12:54:45.802Z,92940.63
2022-09-26T12:57:17.187Z,92929.09
2022-09-26T13:00:17.189Z,92921.81
2022-09-26T13:03:07.796Z,92918.41
2022-09-26T13:05:52.409Z,92919.25
2022-09-26T13:08:43.941Z,92920.09
2022-09-26T13:11:29.219Z,92914.75
2022-09-26T13:14:16.768Z,92911.63
2022-09-26T13:17:19.326Z,92902.53
2022-09-26T13:20:13.522Z,92911.50
2022-09-26T13:22:52.492Z,92902.84
2022-09-26T13:25:26.105Z,92894.22
2022-09-26T13:28:09.634Z,92903.69
2022-09-26T13:30:40.441Z,92898.72
2022-09-26T13:33:21.136Z,92898.72
2022-09-26T13:35:51.530Z,92899.56
2022-09-26T13:38:56.312Z,92891.50
2022-09-26T13:41:44.658Z,92892.06
2022-09-26T13:44:39.161Z,92886.44
2022-09-26T13:47:08.458Z,92883.22
2022-09-26T13:49:54.299Z,92882.72
2022-09-26T13:52:34.190Z,92880.41
2022-09-26T13:55:11.513Z,92872.63
2022-09-26T13:57:46.728Z,92871.22
2022-09-26T14:00:26.473Z,92879.84
2022-09-26T14:03:13.715Z,92877.13
2022-09-26T14:05:52.517Z,92872.13
2022-09-26T14:08:43.538Z,92880.09
2022-09-26T14:11:19.091Z,92863.97
2022-09-26T14:13:47.520Z,92862.53
2022-09-26T14:16:36.112Z,92861.56
2022-09-26T14:19:11.026Z,92862.75
2022-09-26T14:21:58.852Z,92851.31
2022-09-26T14:37:30.714Z,92820.44
2022-09-26T14:39:57.260Z,92836.66
2022-09-26T14:42:46.719Z,92825.28
2022-09-26T14:45:16.645Z,92825.25
2022-09-26T14:47:55.055Z,92819.53
2022-09-26T14:50:28.590Z,92812.97
2022-09-26T14:53:03.174Z,92826.00
2022-09-26T14:55:31.225Z,92817.00
2022-09-26T14:58:17.427Z,92816.19
2022-09-26T15:00:48.472Z,92813.41
2022-09-26T15:03:19.378Z,92805.59
2022-09-26T15:05:47.526Z,92802.25
2022-09-26T15:08:24.519Z,92807.41
2022-09-26T15:10:53.397Z,92799.78
2022-09-26T15:13:28.311Z,92803.53
2022-09-26T15:15:58.474Z,92792.94
2022-09-26T15:18:27.923Z,92802.88
2022-09-26T15:21:04.811Z,92791.84
2022-09-26T15:23:34.176Z,92799.06
2022-09-26T15:26:05.308Z,92791.75
2022-09-26T15:28:34.744Z,92791.28
2022-09-26T15:31:20.450Z,92795.53
2022-09-26T15:33:49.859Z,92785.78
2022-09-26T15:36:17.333Z,92792.94
2022-09-26T15:38:47.452Z,92789.44
2022-09-26T15:41:37.337Z,92792.47
2022-09-26T15:44:07.726Z,92794.31
2022-09-26T15:46:34.731Z,92790.94
2022-09-26T15:49:01.564Z,92787.88
2022-09-26T15:51:38.092Z,92779.00
2022-09-26T15:54:11.276Z,92777.31
2022-09-26T15:56:48.989Z,92778.25
2022-09-26T15:59:40.723Z,92776.53
2022-09-26T16:02:22.976Z,92772.41
2022-09-26T16:04:52.207Z,92773.50
2022-09-26T16:07:23.806Z,92767.69
2022-09-26T16:09:51.538Z,92765.50
2022-09-26T16:12:22.351Z,92766.09
2022-09-26T16:15:13.475Z,92768.81
2022-09-26T16:17:49.074Z,92773.25
2022-09-26T16:20:16.095Z,92770.31
2022-09-26T16:23:04.395Z,92764.50
2022-09-26T16:25:52.912Z,92771.22
2022-09-26T16:28:42.533Z,92758.69
2022-09-26T16:31:17.798Z,92769.94
2022-09-26T16:33:50.955Z,92763.56
2022-09-26T16:36:27.322Z,92764.59
2022-09-26T16:38:58.278Z,92757.97
2022-09-26T16:42:02.416Z,92770.94
2022-09-26T16:44:41.270Z,92763.88
2022-09-26T16:47:35.145Z,92772.44
2022-09-26T16:50:31.320Z,92770.31
2022-09-26T16:52:58.212Z,92769.41
2022-09-26T16:55:26.157Z,92769.84
2022-09-26T16:57:58.397Z,92760.81
2022-09-26T17:00:53.661Z,92756.72
2022-09-26T17:03:25.877Z,92756.72
2022-09-26T17:05:55.670Z,92756.59
2022-09-26T17:08:23.462Z,92756.47
2022-09-26T17:10:50.170Z,92745.31
2022-09-26T17:13:25.249Z,92748.41
2022-09-26T17:15:55.504Z,92743.19
2022-09-26T17:18:29.178Z,92735.06
2022-09-26T17:20:56.880Z,92733.81
2022-09-26T17:23:39.267Z,92731.06
2022-09-26T17:26:07.766Z,92734.78
2022-09-26T17:28:40.060Z,92728.19
2022-09-26T17:31:11.033Z,92725.56
2022-09-26T17:33:42.042Z,92727.06
2022-09-26T17:36:23.439Z,92728.41
2022-09-26T17:38:50.435Z,92726.41
2022-09-26T17:41:17.146Z,92707.41
2022-09-26T17:43:44.660Z,92696.22
2022-09-26T17:46:15.686Z,92698.53
2022-09-26T17:48:43.816Z,92707.13
2022-09-26T17:51:14.609Z,92706.69
2022-09-26T17:53:50.847Z,92704.38
2022-09-26T17:56:21.255Z,92711.31
2022-09-26T17:58:49.568Z,92716.50
2022-09-26T18:01:22.965Z,92708.78
2022-09-26T18:03:53.641Z,92707.81
2022-09-26T18:06:23.385Z,92713.19
2022-09-26T18:08:50.169Z,92718.28
2022-09-26T18:11:18.841Z,92713.00
2022-09-26T18:13:52.662Z,92703.38
2022-09-26T18:16:19.374Z,92693.25
2022-09-26T18:18:47.257Z,92691.91
2022-09-26T18:21:17.265Z,92689.66
2022-09-26T18:23:49.048Z,92686.44
2022-09-26T18:26:33.376Z,92685.94
2022-09-26T18:29:07.548Z,92688.09
2022-09-26T18:31:38.491Z,92686.63
2022-09-26T18:34:12.039Z,92678.28
2022-09-26T18:36:38.792Z,92679.09
2022-09-26T18:39:05.461Z,92662.84
2022-09-26T18:41:32.812Z,92673.94
2022-09-26T18:44:02.160Z,92670.31
2022-09-26T18:46:30.091Z,92654.63
2022-09-26T18:48:58.512Z,92665.06
2022-09-26T18:51:28.684Z,92659.00
2022-09-26T18:53:55.360Z,92659.34
2022-09-26T18:56:40.588Z,92661.44
2022-09-26T18:59:10.072Z,92653.84
2022-09-26T19:01:41.474Z,92651.66
2022-09-26T19:04:21.516Z,92644.66
2022-09-26T19:06:56.069Z,92650.03
2022-09-26T19:09:22.968Z,92636.31
2022-09-26T19:11:49.641Z,92641.38
2022-09-26T19:14:20.169Z,92623.81
2022-09-26T19:16:48.713Z,92638.75
2022-09-26T19:19:16.035Z,92623.38
2022-09-26T19:21:46.299Z,92623.50
2022-09-26T19:24:34.425Z,92626.22
2022-09-26T19:27:20.252Z,92615.03
2022-09-26T19:29:52.897Z,92618.88
2022-09-26T19:32:35.913Z,92618.88
2022-09-26T19:35:25.952Z,92616.00
2022-09-26T19:37:53.167Z,92620.91
2022-09-26T19:40:21.455Z,92616.00
2022-09-26T19:42:48.235Z,92608.88
2022-09-26T19:45:15.616Z,92605.03
2022-09-26T19:47:55.852Z,92603.66
2022-09-26T19:50:25.737Z,92605.38
2022-09-26T19:52:53.692Z,92596.38
2022-09-26T19:55:26.501Z,92611.28
2022-09-26T19:57:54.592Z,92600.84
2022-09-26T20:00:21.755Z,92607.19
2022-09-26T20:02:51.654Z,92605.69
2022-09-26T20:05:26.379Z,92602.81
2022-09-26T20:07:53.376Z,92596.22
2022-09-26T20:10:25.263Z,92606.97
2022-09-26T20:12:52.324Z,92602.53
2022-09-26T20:15:22.455Z,92599.59
2022-09-26T20:17:49.709Z,92610.53
2022-09-26T20:20:19.995Z,92610.88
2022-09-26T20:22:47.138Z,92611.75
2022-09-26T20:25:16.797Z,92607.03
2022-09-26T20:27:43.736Z,92606.03
2022-09-26T20:30:34.276Z,92619.88
2022-09-26T20:33:01.767Z,92614.78
2022-09-26T20:35:34.467Z,92603.69
2022-09-26T20:38:08.309Z,92602.38
2022-09-26T20:40:35.856Z,92598.47
2022-09-26T20:43:07.706Z,92592.09
2022-09-26T20:45:40.829Z,92581.50
2022-09-26T20:48:17.704Z,92575.03
2022-09-26T20:50:44.451Z,92575.72
2022-09-26T20:53:20.974Z,92570.38
2022-09-26T20:55:48.176Z,92569.03
2022-09-26T20:58:15.414Z,92569.94
2022-09-26T21:00:43.827Z,92556.34
2022-09-26T21:03:12.657Z,92550.88
2022-09-26T21:05:39.853Z,92560.41
2022-09-26T21:08:13.818Z,92555.56
2022-09-26T21:10:40.455Z,92560.59
2022-09-26T21:13:08.978Z,92548.34
2022-09-26T21:15:36.817Z,92552.19
2022-09-26T21:18:03.490Z,92543.56
2022-09-26T21:20:33.438Z,92542.00
2022-09-26T21:23:01.783Z,92539.94
2022-09-26T21:25:31.588Z,92526.59
2022-09-26T21:28:02.949Z,92540.59
2022-09-26T21:30:30.608Z,92539.50
2022-09-26T21:32:59.819Z,92541.78
2022-09-26T21:35:29.783Z,92542.22
2022-09-26T21:37:58.845Z,92536.31
2022-09-26T21:40:29.097Z,92536.09
2022-09-26T21:43:06.725Z,92533.78
2022-09-26T21:45:33.739Z,92535.44
2022-09-26T21:48:00.421Z,92521.13
2022-09-26T21:50:28.784Z,92512.38
2022-09-26T21:53:11.776Z,92514.84
2022-09-26T21:55:43.214Z,92509.53
2022-09-26T21:58:14.974Z,92501.31
2022-09-26T22:00:41.626Z,92502.97
2022-09-26T22:03:08.369Z,92497.16
2022-09-26T22:05:35.033Z,92483.94
2022-09-26T22:08:01.885Z,92480.75
2022-09-26T22:10:29.272Z,92484.50
2022-09-26T22:12:55.972Z,92482.97
2022-09-26T22:15:22.648Z,92483.28
2022-09-26T22:17:49.418Z,92474.22
2022-09-26T22:20:16.176Z,92472.16
2022-09-26T22:22:42.840Z,92467.88
2022-09-26T22:25:09.878Z,92461.34
2022-09-26T22:27:36.648Z,92454.56
2022-09-26T22:30:04.726Z,92453.13
2022-09-26T22:32:31.419Z,92454.94
2022-09-26T22:34:58.112Z,92444.56
2022-09-26T22:37:24.818Z,92452.66
2022-09-26T22:39:51.746Z,92445.31
2022-09-26T22:42:18.450Z,92441.41
2022-09-26T22:44:45.094Z,92429.81
2022-09-26T22:47:11.968Z,92434.97
2022-09-26T22:49:38.778Z,92429.91
2022-09-26T22:52:05.429Z,92421.16
2022-09-26T22:54:32.041Z,92415.91
2022-09-26T22:56:58.785Z,92410.03
2022-09-26T22:59:25.485Z,92408.72
2022-09-26T23:01:52.570Z,92409.56
2022-09-26T23:04:19.366Z,92404.88
2022-09-26T23:06:46.052Z,92403.03
2022-09-26T23:09:12.806Z,92399.97
2022-09-26T23:11:40.850Z,92397.78
2022-09-26T23:14:07.619Z,92396.91
2022-09-26T23:16:34.686Z,92383.56
2022-09-26T23:19:01.446Z,92389.69
2022-09-26T23:21:28.364Z,92384.88
2022-09-26T23:23:58.237Z,92382.59
2022-09-26T23:26:31.632Z,92383.81
2022-09-26T23:28:58.908Z,92382.38
2022-09-26T23:31:27.189Z,92379.75
2022-09-26T23:33:54.615Z,92376.34
2022-09-26T23:36:21.313Z,92370.78
2022-09-26T23:38:48.253Z,92357.22
2022-09-26T23:41:15.040Z,92362.91
2022-09-26T23:43:42.259Z,92356.25
2022-09-26T23:46:09.618Z,92341.28
2022-09-26T23:48:37.150Z,92338.44
2022-09-26T23:51:03.984Z,92333.97
2022-09-26T23:53:32.635Z,92333.84
2022-09-26T23:56:07.461Z,92333.97
2022-09-26T23:58:34.420Z,92328.41
